METAR (acronimo di METeorological Air Report) è un messaggio meteo emesso nella maggior parte dei casi in ambito aeroportuale

LIPF - Ferrara, It
Distanza dalla Stazione: 8 km
Ultimo Aggiornamento: Venerdì 03 Aprile 2020 07:55 CEST
Sereno
Sereno
 Wind from varies
Vento: variabile 0 km/h
Temperatura: -1°C
Punto di Rugiada: -2°C
Umidità: 93%
Barometro: 1013 hPa
Condizioni: Sereno
Visibilità: superiore a 10 km
2020/04/03 05:55 LIPF 030555Z /////KT CAVOK M01/M02 Q1013
LIPE - Bologna Borgo Panigale, It
Distanza dalla Stazione: 46 km
Ultimo Aggiornamento: Venerdì 03 Aprile 2020 07:50 CEST
Sereno
Sereno
 Wind from Sud
Vento: Sud 13 km/h
Temperatura: 4°C
Wind Chill: 1°C
Punto di Rugiada: -1°C
Umidità: 70%
Barometro: 1013 hPa
Condizioni: Sereno
Visibilità: superiore a 10 km
2020/04/03 05:50 LIPE 030550Z 19007KT CAVOK 04/M01 Q1013
LIMF - Torino Caselle, It
Distanza dalla Stazione: 320 km
Ultimo Aggiornamento: Venerdì 03 Aprile 2020 07:50 CEST
Parzialmente Nuvoloso
Parzialmente Nuvoloso
 Wind from varies
Vento: variabile 2 km/h
Temperatura: 3°C
Punto di Rugiada: 0°C
Umidità: 81%
Barometro: 1013 hPa
Nuvole: Parzialmente Nuvoloso
Visibilità: 8 km
2020/04/03 05:50 LIMF 030550Z VRB01KT 8000 NSC 03/M00 Q1013
 
LIML - Milano Malpensa, It
Distanza dalla Stazione: 249 km
Ultimo Aggiornamento: Venerdì 03 Aprile 2020 07:50 CEST
Sereno
Sereno
 Wind from varies
Vento: variabile 2 km/h
Temperatura: 3°C
Punto di Rugiada: 0°C
Umidità: 81%
Barometro: 1013 hPa
Condizioni: Sereno
Visibilità: superiore a 10 km
2020/04/03 05:50 LIML 030550Z VRB01KT CAVOK 03/M00 Q1013 NOSIG
LIME - Bergamo Orio al Serio, It
Distanza dalla Stazione: 181 km
Ultimo Aggiornamento: Venerdì 03 Aprile 2020 07:50 CEST
Sereno
Sereno
 Wind from Nord
Vento: Nord 7 km/h
Temperatura: 3°C
Wind Chill: 1°C
Punto di Rugiada: -1°C
Umidità: 75%
Barometro: 1013 hPa
Condizioni: Sereno
Visibilità: superiore a 10 km
2020/04/03 05:50 LIME 030550Z 01004KT CAVOK 03/M01 Q1013 NOSIG
LIPZ - Venezia Tessera, It
Distanza dalla Stazione: 93 km
Ultimo Aggiornamento: Venerdì 03 Aprile 2020 06:50 CEST
Dati non Recenti
Sereno
Sereno
 Wind from Nord-Est
Vento: Nord-Est 4 km/h
Temperatura: 2°C
Punto di Rugiada: 1°C
Umidità: 93%
Barometro: 1013 hPa
Condizioni: Sereno
Visibilità: superiore a 10 km
2020/04/03 04:50 LIPZ 030450Z 04002KT CAVOK 02/01 Q1013 NOSIG
 
LIVT - Trieste, It
Distanza dalla Stazione: 179 km
Ultimo Aggiornamento: Venerdì 03 Aprile 2020 07:55 CEST
Sereno
Sereno
 Wind from varies
Vento: variabile 0 km/h
Temperatura: 5°C
Punto di Rugiada: 2°C
Umidità: 81%
Barometro: 1013 hPa
Condizioni: Sereno
Visibilità: superiore a 10 km
2020/04/03 05:55 LIVT 030555Z /////KT CAVOK 05/02 Q1013 RMK SKC QUK 0 QUL 0 VIS MAR 20 KM VIS MIN 9999
LIMJ - Genova, It
Distanza dalla Stazione: 229 km
Ultimo Aggiornamento: Venerdì 03 Aprile 2020 07:50 CEST
Sereno
Sereno
 Wind from Nord-Est
Vento: Nord-Est 11 km/h
Temperatura: 8°C
Wind Chill: 6°C
Punto di Rugiada: 0°C
Umidità: 57%
Barometro: 1012 hPa
Condizioni: Sereno
Visibilità: superiore a 10 km
2020/04/03 05:50 LIMJ 030550Z 04006KT CAVOK 08/M00 Q1012
LIRQ - Firenze Amerigo Vespucci, It
Distanza dalla Stazione: 119 km
Ultimo Aggiornamento: Venerdì 03 Aprile 2020 07:50 CEST
Sereno
Sereno
 Wind from Est-Nord-Est
Vento: Est-Nord-Est 6 km/h
Temperatura: 2°C
Punto di Rugiada: -1°C
Umidità: 81%
Barometro: 1013 hPa
Condizioni: Sereno
Visibilità: superiore a 10 km
2020/04/03 05:50 LIRQ 030550Z 07003KT CAVOK 02/M01 Q1013
 
LIPY - Ancona, It
Distanza dalla Stazione: 189 km
Ultimo Aggiornamento: Venerdì 03 Aprile 2020 07:50 CEST
Sereno
Sereno
 Wind from Sud
Vento: Sud 6 km/h
Temperatura: 1°C
Punto di Rugiada: -1°C
Umidità: 87%
Barometro: 1014 hPa
Condizioni: Sereno
Visibilità: superiore a 10 km
2020/04/03 05:50 LIPY 030550Z 19003KT CAVOK 01/M01 Q1014
LIBP - Pescara, It
Distanza dalla Stazione: 333 km
Ultimo Aggiornamento: Venerdì 03 Aprile 2020 07:50 CEST
Sereno
Sereno
 Wind from Sud-Sud-Ovest
Vento: Sud-Sud-Ovest 9 km/h
Temperatura: 1°C
Wind Chill: -2°C
Punto di Rugiada: 0°C
Umidità: 93%
Barometro: 1014 hPa
Condizioni: Sereno
Visibilità: superiore a 10 km
2020/04/03 05:50 LIBP 030550Z 21005KT CAVOK 01/M00 Q1014
LIRF - Roma-Fiumicino, It
Distanza dalla Stazione: 334 km
Ultimo Aggiornamento: Venerdì 03 Aprile 2020 07:50 CEST
Sereno
Sereno
 Wind from Nord-Est
Vento: Nord-Est 7 km/h
Temperatura: 3°C
Wind Chill: 1°C
Punto di Rugiada: 0°C
Umidità: 81%
Barometro: 1012 hPa
Condizioni: Sereno
Visibilità: superiore a 10 km
2020/04/03 05:50 LIRF 030550Z 04004KT CAVOK 03/M00 Q1012 NOSIG
 
LIRN - Napoli Capodichino, It
Distanza dalla Stazione: 494 km
Ultimo Aggiornamento: Venerdì 03 Aprile 2020 07:50 CEST
Parzialmente Nuvoloso
Parzialmente Nuvoloso
 Wind from Nord-Nord-Ovest
Vento: Nord-Nord-Ovest 7 km/h
Temperatura: 8°C
Wind Chill: 7°C
Punto di Rugiada: 2°C
Umidità: 66%
Barometro: 1011 hPa
Nuvole: Parzialmente Nuvoloso
Visibilità: 10 km
Nuvole nel Dettaglio: Parzialmente Nuvoloso 1372 m
2020/04/03 05:50 LIRN 030550Z 33004KT 9999 SCT045 08/02 Q1011 NOSIG
LIBD - Bari Palese, It
Distanza dalla Stazione: 594 km
Ultimo Aggiornamento: Venerdì 03 Aprile 2020 07:50 CEST
Sereno
Sereno
 Wind from Sud
Vento: Sud 4 km/h
Temperatura: 6°C
Punto di Rugiada: 3°C
Umidità: 81%
Barometro: 1013 hPa
Condizioni: Sereno
Visibilità: superiore a 10 km
2020/04/03 05:50 LIBD 030550Z 17002KT CAVOK 06/03 Q1013
LIBG - Taranto Grottaglie, It
Distanza dalla Stazione: 670 km
Ultimo Aggiornamento: Venerdì 03 Aprile 2020 08:00 CEST
Sereno
Sereno
 Wind from calm
Vento: Calma
Temperatura: 7°C
Punto di Rugiada: 7°C
Umidità: 100%
Barometro: 1012 hPa
Condizioni: Sereno
Visibilità: superiore a 10 km
2020/04/03 06:00 LIBG 030600Z 00000KT CAVOK 07/07 Q1012
 
LICR - Reggio Calabria, It
Distanza dalla Stazione: 819 km
Ultimo Aggiornamento: Venerdì 03 Aprile 2020 07:50 CEST
Parzialmente Nuvoloso
Parzialmente Nuvoloso
 Wind from Est-Sud-Est
Vento: Est-Sud-Est 6 km/h
Temperatura: 10°C
Punto di Rugiada: 6°C
Umidità: 76%
Barometro: 1010 hPa
Nuvole: Parzialmente Nuvoloso
Visibilità: 10 km
Nuvole nel Dettaglio: Parzialmente Nuvoloso 1219 m
2020/04/03 05:50 LICR 030550Z 11003KT 080V170 9999 SCT040 10/06 Q1010
LICJ - Palermo Punta Raisi, It
Distanza dalla Stazione: 762 km
Ultimo Aggiornamento: Giovedì 02 Aprile 2020 18:50 CEST
Dati non Recenti
Parzialmente Nuvoloso
Parzialmente Nuvoloso
 Wind from Est-Nord-Est
Vento: Est-Nord-Est 19 km/h
Temperatura: 13°C
Punto di Rugiada: 7°C
Umidità: 67%
Barometro: 1011 hPa
Nuvole: Parzialmente Nuvoloso
Visibilità: 10 km
Nuvole nel Dettaglio: Parzialmente Nuvoloso 1067 m
2020/04/02 16:50 LICJ 021650Z 07010KT 9999 SCT035 13/07 Q1011
LICC - Catania Fontanarossa, It
Distanza dalla Stazione: 866 km
Ultimo Aggiornamento: Venerdì 03 Aprile 2020 07:50 CEST
Prevalentemente Nuvoloso
Prevalentemente Nuvoloso
 Wind from Est
Vento: Est 24 km/h
Temperatura: 12°C
Punto di Rugiada: 8°C
Umidità: 77%
Barometro: 1011 hPa
Nuvole: Prevalentemente Nuvoloso
Visibilità: 10 km
Nuvole nel Dettaglio: Prevalentemente Nuvoloso 610 m
2020/04/03 05:50 LICC 030550Z 08013KT 9999 BKN020 12/08 Q1011
 
LIEE - Cagliari Elmas, It
Distanza dalla Stazione: 655 km
Ultimo Aggiornamento: Venerdì 03 Aprile 2020 07:50 CEST
Prevalentemente Nuvoloso
Prevalentemente Nuvoloso
 Wind from Nord-Ovest
Vento: Nord-Ovest 6 km/h
Temperatura: 10°C
Punto di Rugiada: 10°C
Umidità: 100%
Barometro: 1011 hPa
Nuvole: Prevalentemente Nuvoloso
Visibilità: 10 km
Nuvole nel Dettaglio: Prevalentemente Nuvoloso 1006 m
2020/04/03 05:50 LIEE 030550Z 32003KT 290V010 9999 BKN033 10/10 Q1011
LIEO - Olbia, It
Distanza dalla Stazione: 463 km
Ultimo Aggiornamento: Venerdì 03 Aprile 2020 07:50 CEST
Pioggia Leggera, Parzialmente Nuvoloso
Pioggia Leggera, Parzialmente Nuvoloso
 Wind from varies
Vento: variabile 2 km/h
Temperatura: 8°C
Punto di Rugiada: 7°C
Umidità: 93%
Barometro: 1011 hPa
Condizioni: Pioggia Leggera
Nuvole: Parzialmente Nuvoloso
Visibilità: 10 km
Nuvole nel Dettaglio: Parzialmente Nuvoloso 1524 m
2020/04/03 05:50 LIEO 030550Z VRB01KT 9999 -RA SCT050 08/07 Q1011
LICG - Pantelleria, It
Distanza dalla Stazione: 893 km
Ultimo Aggiornamento: Venerdì 03 Aprile 2020 07:50 CEST
Prevalentemente Nuvoloso
Prevalentemente Nuvoloso
 Wind from Est
Vento: Est 9 km/h
Temperatura: 12°C
Punto di Rugiada: 10°C
Umidità: 88%
Barometro: 1009 hPa
Nuvole: Prevalentemente Nuvoloso
Visibilità: 10 km
Nuvole nel Dettaglio: Qualche Nuvola 366 m
Prevalentemente Nuvoloso 762 m
2020/04/03 05:50 LICG 030550Z 09005KT 9999 FEW012 BKN025 12/10 Q1009